Time;durP1;ratioP1;P1;durP2;ratioP2;P2;SDS_P1;SDS_P2;PMS_P1;PMS_P2;Temp;Humidity;BMP_temperature;BMP_pressure;BME280_temperature;BME280_humidity;BME280_pressure;Samples;Min_cycle;Max_cycle;Signal;HPM_P1;HPM_P2
2022/06/27 00:01:01;;;;;;;;;;;;;;;;;;5034759;28;19924;-79
2022/06/27 00:03:26;;;;;;;;;;;;;;;;;;5034488;28;19976;-80
2022/06/27 00:05:52;;;;;;;;;;;;;;;;;;5034359;28;19913;-79
2022/06/27 00:08:18;;;;;;;;;;;;;;;;;;5032240;28;19920;-79
2022/06/27 00:10:44;;;;;;;;;;;;;;;;;;5035995;28;19917;-80
2022/06/27 00:13:10;;;;;;;;;;;;;;;;;;5038909;28;20456;-80
2022/06/27 00:15:36;;;;;;;;;;;;;;;;;;5038416;28;19933;-82
2022/06/27 00:18:02;;;;;;;;;;;;;;;;;;5035557;28;19913;-78
2022/06/27 00:20:28;;;;;;;;;;;;;;;;;;5033196;28;19910;-78
2022/06/27 00:22:53;;;;;;;;;;;;;;;;;;5035211;28;19910;-78
2022/06/27 00:25:19;;;;;;;;;;;;;;;;;;5033949;28;19980;-78
2022/06/27 00:27:45;;;;;;;;;;;;;;;;;;5033746;28;19941;-79
2022/06/27 00:30:11;;;;;;;;;;;;;;;;;;5032992;28;19909;-77
2022/06/27 00:32:37;;;;;;;;;;;;;;;;;;5033353;28;19936;-79
2022/06/27 00:35:03;;;;;;;;;;;;;;;;;;5032151;28;19909;-78
2022/06/27 00:37:29;;;;;;;;;;;;;;;;;;5033246;28;19910;-78
2022/06/27 00:39:55;;;;;;;;;;;;;;;;;;5032497;28;19913;-78
2022/06/27 00:42:21;;;;;;;;;;;;;;;;;;5033568;28;19952;-79
2022/06/27 00:44:46;;;;;;;;;;;;;;;;;;5031696;28;19913;-78
2022/06/27 00:47:12;;;;;;;;;;;;;;;;;;5032862;28;20067;-79
2022/06/27 00:49:38;;;;;;;;;;;;;;;;;;5032261;28;19913;-79
2022/06/27 00:52:04;;;;;;;;;;;;;;;;;;5031687;28;19909;-78
2022/06/27 00:54:30;;;;;;;;;;;;;;;;;;5032968;28;20400;-79
2022/06/27 00:56:56;;;;;;;;;;;;;;;;;;5031161;28;19917;-78
2022/06/27 00:59:22;;;;;;;;;;;;;;;;;;5031927;28;20327;-78
2022/06/27 01:01:48;;;;;;;;;;;;;;;;;;5032593;28;19913;-79
2022/06/27 01:04:14;;;;;;;;;;;;;;;;;;5032570;28;20289;-78
2022/06/27 01:06:39;;;;;;;;;;;;;;;;;;5033043;28;20369;-78
2022/06/27 01:09:05;;;;;;;;;;;;;;;;;;5030783;28;19917;-78
2022/06/27 01:11:31;;;;;;;;;;;;;;;;;;5031225;28;20055;-78
2022/06/27 01:13:57;;;;;;;;;;;;;;;;;;5031435;28;19910;-79
2022/06/27 01:16:23;;;;;;;;;;;;;;;;;;5032645;28;19909;-79
2022/06/27 01:18:49;;;;;;;;;;;;;;;;;;5031487;28;19917;-78
2022/06/27 01:21:15;;;;;;;;;;;;;;;;;;5031170;28;19909;-79
2022/06/27 01:23:41;;;;;;;;;;;;;;;;;;5030884;28;19913;-79
2022/06/27 01:26:07;;;;;;;;;;;;;;;;;;5032161;28;20000;-79
2022/06/27 01:28:32;;;;;;;;;;;;;;;;;;5030084;28;19909;-78
2022/06/27 01:30:58;;;;;;;;;;;;;;;;;;5031862;28;19932;-78
2022/06/27 01:33:24;;;;;;;;;;;;;;;;;;5031655;28;19960;-79
2022/06/27 01:36:41;;;;;;;;;;;;;;;;;;5030669;28;20282;-78
2022/06/27 01:38:36;;;;;;;;;;;;;;;;;;5031103;28;20297;-79
2022/06/27 01:41:02;;;;;;;;;;;;;;;;;;5031967;28;19916;-79
2022/06/27 01:43:28;;;;;;;;;;;;;;;;;;5031916;28;19909;-79
2022/06/27 01:45:53;;;;;;;;;;;;;;;;;;5032905;28;19949;-79
2022/06/27 01:48:19;;;;;;;;;;;;;;;;;;5033457;28;19925;-85
2022/06/27 01:50:45;;;;;;;;;;;;;;;;;;5031265;28;20292;-82
2022/06/27 01:53:11;;;;;;;;;;;;;;;;;;5032270;28;19913;-80
2022/06/27 01:55:37;;;;;;;;;;;;;;;;;;5032464;28;19913;-79
2022/06/27 01:58:03;;;;;;;;;;;;;;;;;;5032018;28;19920;-81
2022/06/27 02:00:29;;;;;;;;;;;;;;;;;;5032644;28;19963;-79
2022/06/27 02:02:55;;;;;;;;;;;;;;;;;;5034362;28;19913;-79
2022/06/27 02:05:20;;;;;;;;;;;;;;;;;;5033610;28;20377;-79
2022/06/27 02:07:46;;;;;;;;;;;;;;;;;;5034681;28;19910;-78
2022/06/27 02:10:12;;;;;;;;;;;;;;;;;;5034399;28;19909;-80
2022/06/27 02:12:38;;;;;;;;;;;;;;;;;;5035533;28;19956;-78
2022/06/27 02:15:04;;;;;;;;;;;;;;;;;;5035224;28;19919;-78
2022/06/27 02:17:30;;;;;;;;;;;;;;;;;;5035295;28;19968;-78
2022/06/27 02:19:56;;;;;;;;;;;;;;;;;;5036024;28;19923;-78
2022/06/27 02:22:22;;;;;;;;;;;;;;;;;;5038087;28;19992;-78
2022/06/27 02:24:48;;;;;;;;;;;;;;;;;;5036611;28;20321;-79
2022/06/27 02:27:14;;;;;;;;;;;;;;;;;;5037372;28;19963;-80
2022/06/27 02:29:39;;;;;;;;;;;;;;;;;;5035814;28;20389;-78
2022/06/27 02:32:06;;;;;;;;;;;;;;;;;;5036923;28;19917;-78
2022/06/27 02:34:31;;;;;;;;;;;;;;;;;;5035537;28;19913;-78
2022/06/27 02:36:57;;;;;;;;;;;;;;;;;;5035812;28;19920;-81
2022/06/27 02:39:23;;;;;;;;;;;;;;;;;;5036287;28;20288;-77
2022/06/27 02:41:49;;;;;;;;;;;;;;;;;;5036041;28;19916;-77
2022/06/27 02:44:15;;;;;;;;;;;;;;;;;;5037479;28;19909;-77
2022/06/27 02:46:41;;;;;;;;;;;;;;;;;;5036748;28;19921;-77
2022/06/27 02:49:07;;;;;;;;;;;;;;;;;;5035773;28;19917;-78
2022/06/27 02:51:33;;;;;;;;;;;;;;;;;;5035728;28;19913;-78
2022/06/27 02:53:59;;;;;;;;;;;;;;;;;;5036887;28;19920;-79
2022/06/27 02:56:25;;;;;;;;;;;;;;;;;;5036978;28;19913;-78
2022/06/27 02:58:51;;;;;;;;;;;;;;;;;;5035404;28;19917;-80
2022/06/27 03:01:16;;;;;;;;;;;;;;;;;;5036541;28;19963;-80
2022/06/27 03:03:42;;;;;;;;;;;;;;;;;;5036097;28;19931;-78
2022/06/27 03:06:08;;;;;;;;;;;;;;;;;;5034523;28;19909;-78
2022/06/27 03:08:34;;;;;;;;;;;;;;;;;;5034001;28;19910;-78
2022/06/27 03:11:00;;;;;;;;;;;;;;;;;;5035038;28;20477;-78
2022/06/27 03:13:26;;;;;;;;;;;;;;;;;;5033303;28;19913;-78
2022/06/27 03:15:52;;;;;;;;;;;;;;;;;;5034377;28;20435;-78
2022/06/27 03:18:18;;;;;;;;;;;;;;;;;;5032968;28;19917;-78
2022/06/27 03:20:44;;;;;;;;;;;;;;;;;;5032503;28;19909;-78
2022/06/27 03:23:10;;;;;;;;;;;;;;;;;;5032769;28;19909;-79
2022/06/27 03:25:36;;;;;;;;;;;;;;;;;;5034315;28;19910;-79
2022/06/27 03:28:02;;;;;;;;;;;;;;;;;;5033275;28;19916;-79
2022/06/27 03:30:28;;;;;;;;;;;;;;;;;;5033561;28;19916;-78
2022/06/27 03:32:54;;;;;;;;;;;;;;;;;;5034394;28;19920;-78
2022/06/27 03:35:19;;;;;;;;;;;;;;;;;;5034088;28;19968;-78
2022/06/27 03:37:45;;;;;;;;;;;;;;;;;;5034460;28;19905;-78
2022/06/27 03:40:11;;;;;;;;;;;;;;;;;;5033795;28;20043;-78
2022/06/27 03:42:37;;;;;;;;;;;;;;;;;;5032807;28;20476;-78
2022/06/27 03:45:03;;;;;;;;;;;;;;;;;;5034102;28;19916;-79
2022/06/27 03:47:29;;;;;;;;;;;;;;;;;;5033599;28;19924;-77
2022/06/27 03:50:01;;;;;;;;;;;;;;;;;;5031943;28;19967;-78
2022/06/27 03:52:27;;;;;;;;;;;;;;;;;;5034037;28;19909;-78
2022/06/27 03:54:54;;;;;;;;;;;;;;;;;;5033316;28;20420;-78
2022/06/27 03:57:20;;;;;;;;;;;;;;;;;;5032484;28;20411;-79
2022/06/27 03:59:46;;;;;;;;;;;;;;;;;;5032615;28;19919;-79
2022/06/27 04:02:14;;;;;;;;;;;;;;;;;;5030929;28;19913;-78
2022/06/27 04:04:40;;;;;;;;;;;;;;;;;;5031457;28;19920;-79
2022/06/27 04:07:06;;;;;;;;;;;;;;;;;;5028670;28;19913;-78
2022/06/27 04:09:31;;;;;;;;;;;;;;;;;;5039060;28;19916;-79
2022/06/27 04:11:57;;;;;;;;;;;;;;;;;;5020224;28;20254;-79
2022/06/27 04:14:23;;;;;;;;;;;;;;;;;;5024532;28;20369;-78
2022/06/27 04:16:51;;;;;;;;;;;;;;;;;;5032826;28;20063;-79
2022/06/27 04:19:17;;;;;;;;;;;;;;;;;;5028429;28;19928;-80
2022/06/27 04:21:43;;;;;;;;;;;;;;;;;;5016424;28;19921;-79
2022/06/27 04:24:09;;;;;;;;;;;;;;;;;;5022101;28;19921;-83
2022/06/27 04:26:36;;;;;;;;;;;;;;;;;;5029816;28;20259;-82
2022/06/27 04:29:02;;;;;;;;;;;;;;;;;;5014019;28;19910;-78
2022/06/27 04:31:28;;;;;;;;;;;;;;;;;;5015993;28;19913;-78
2022/06/27 04:33:54;;;;;;;;;;;;;;;;;;5013629;28;19910;-78
2022/06/27 04:36:19;;;;;;;;;;;;;;;;;;5014224;28;19916;-79
2022/06/27 04:38:46;;;;;;;;;;;;;;;;;;5014144;28;20278;-81
2022/06/27 04:41:12;;;;;;;;;;;;;;;;;;5015549;28;20289;-81
2022/06/27 04:43:38;;;;;;;;;;;;;;;;;;5013071;28;19909;-79
2022/06/27 04:46:05;;;;;;;;;;;;;;;;;;5014109;28;20339;-79
2022/06/27 04:48:34;;;;;;;;;;;;;;;;;;5012858;28;19922;-80
2022/06/27 04:51:00;;;;;;;;;;;;;;;;;;5013623;28;20040;-80
2022/06/27 04:53:27;;;;;;;;;;;;;;;;;;5016363;28;19963;-80
2022/06/27 04:55:54;;;;;;;;;;;;;;;;;;5014225;28;19980;-81
2022/06/27 04:58:20;;;;;;;;;;;;;;;;;;5023072;28;19925;-79
2022/06/27 05:00:46;;;;;;;;;;;;;;;;;;5030852;28;20293;-80
2022/06/27 05:03:12;;;;;;;;;;;;;;;;;;5029328;28;19913;-82
2022/06/27 05:05:38;;;;;;;;;;;;;;;;;;5030622;28;19921;-81
2022/06/27 05:08:04;;;;;;;;;;;;;;;;;;5014606;28;20448;-78
2022/06/27 05:10:30;;;;;;;;;;;;;;;;;;5032261;28;19917;-78
2022/06/27 05:12:56;;;;;;;;;;;;;;;;;;5034358;28;19909;-77
2022/06/27 05:15:22;;;;;;;;;;;;;;;;;;5032824;28;19916;-79
2022/06/27 05:17:48;;;;;;;;;;;;;;;;;;5031230;28;19909;-78
2022/06/27 05:20:14;;;;;;;;;;;;;;;;;;5031384;28;19914;-78
2022/06/27 05:22:40;;;;;;;;;;;;;;;;;;5028161;28;19913;-79
2022/06/27 05:25:07;;;;;;;;;;;;;;;;;;5026005;28;19913;-80
2022/06/27 05:27:35;;;;;;;;;;;;;;;;;;5032009;28;19913;-79
2022/06/27 05:30:01;;;;;;;;;;;;;;;;;;5032375;28;19920;-79
2022/06/27 05:32:27;;;;;;;;;;;;;;;;;;5032083;28;19909;-79
2022/06/27 05:34:53;;;;;;;;;;;;;;;;;;5032461;28;19915;-80
2022/06/27 05:37:19;;;;;;;;;;;;;;;;;;5030762;28;20409;-80
2022/06/27 05:39:46;;;;;;;;;;;;;;;;;;5030528;28;19913;-81
2022/06/27 05:42:12;;;;;;;;;;;;;;;;;;5033220;28;19913;-80
2022/06/27 05:44:38;;;;;;;;;;;;;;;;;;5018247;28;19944;-81
2022/06/27 05:47:04;;;;;;;;;;;;;;;;;;5023646;28;19924;-81
2022/06/27 05:49:31;;;;;;;;;;;;;;;;;;5031500;28;20354;-81
2022/06/27 05:51:57;;;;;;;;;;;;;;;;;;5030803;28;20335;-82
2022/06/27 05:54:24;;;;;;;;;;;;;;;;;;5026406;28;19913;-80
2022/06/27 05:56:50;;;;;;;;;;;;;;;;;;5038006;28;19916;-78
2022/06/27 05:59:17;;;;;;;;;;;;;;;;;;5037131;28;19913;-80
2022/06/27 06:01:45;;;;;;;;;;;;;;;;;;5038692;28;19909;-79
2022/06/27 06:04:12;;;;;;;;;;;;;;;;;;5037572;28;19936;-84
2022/06/27 06:06:38;;;;;;;;;;;;;;;;;;5031881;28;20278;-82
2022/06/27 06:09:04;;;;;;;;;;;;;;;;;;5036729;28;19916;-79
2022/06/27 06:11:30;;;;;;;;;;;;;;;;;;5028730;28;19909;-80
2022/06/27 06:13:57;;;;;;;;;;;;;;;;;;5032587;28;20288;-83
2022/06/27 06:16:24;;;;;;;;;;;;;;;;;;5039560;28;19963;-81
2022/06/27 06:18:53;;;;;;;;;;;;;;;;;;5036139;28;19917;-82
2022/06/27 06:21:19;;;;;;;;;;;;;;;;;;5038305;28;19916;-82
2022/06/27 06:23:45;;;;;;;;;;;;;;;;;;5038844;28;19909;-80
2022/06/27 06:26:14;;;;;;;;;;;;;;;;;;5038868;28;19920;-81
2022/06/27 06:28:40;;;;;;;;;;;;;;;;;;5036538;28;20391;-81
2022/06/27 06:31:07;;;;;;;;;;;;;;;;;;5031777;28;20369;-81
2022/06/27 06:33:33;;;;;;;;;;;;;;;;;;5025984;28;19925;-80
2022/06/27 06:35:59;;;;;;;;;;;;;;;;;;5035340;28;19921;-80
2022/06/27 06:38:25;;;;;;;;;;;;;;;;;;5036620;28;20049;-79
2022/06/27 06:40:51;;;;;;;;;;;;;;;;;;5037877;28;20400;-81
2022/06/27 06:43:17;;;;;;;;;;;;;;;;;;5048955;28;19916;-80
2022/06/27 06:45:43;;;;;;;;;;;;;;;;;;5032566;28;19910;-82
2022/06/27 06:48:11;;;;;;;;;;;;;;;;;;5031098;28;20384;-79
2022/06/27 06:50:37;;;;;;;;;;;;;;;;;;5060353;28;19913;-81
2022/06/27 06:53:04;;;;;;;;;;;;;;;;;;5055175;28;19916;-81
2022/06/27 06:55:30;;;;;;;;;;;;;;;;;;5040298;28;19985;-80
2022/06/27 06:57:56;;;;;;;;;;;;;;;;;;5038990;28;19915;-80
2022/06/27 07:00:22;;;;;;;;;;;;;;;;;;5039101;28;20008;-80
2022/06/27 07:02:48;;;;;;;;;;;;;;;;;;5023939;28;19932;-80
2022/06/27 07:05:14;;;;;;;;;;;;;;;;;;5017955;28;19914;-79
2022/06/27 07:07:43;;;;;;;;;;;;;;;;;;5014562;28;19964;-80
2022/06/27 07:10:10;;;;;;;;;;;;;;;;;;5014216;28;19969;-80
2022/06/27 07:12:38;;;;;;;;;;;;;;;;;;5015668;28;19913;-80
2022/06/27 07:15:05;;;;;;;;;;;;;;;;;;5016756;28;19909;-81
2022/06/27 07:17:31;;;;;;;;;;;;;;;;;;5025054;28;19924;-80
2022/06/27 07:19:58;;;;;;;;;;;;;;;;;;5024747;28;19917;-80
2022/06/27 07:22:24;;;;;;;;;;;;;;;;;;5032873;28;19951;-81
2022/06/27 07:24:50;;;;;;;;;;;;;;;;;;5029669;28;19964;-80
2022/06/27 07:27:16;;;;;;;;;;;;;;;;;;5024478;28;19948;-79
2022/06/27 07:29:42;;;;;;;;;;;;;;;;;;5034670;28;19963;-80
2022/06/27 07:32:08;;;;;;;;;;;;;;;;;;5043866;28;19999;-80
2022/06/27 07:34:34;;;;;;;;;;;;;;;;;;5038742;28;19910;-81
2022/06/27 07:37:00;;;;;;;;;;;;;;;;;;5017540;28;20337;-81
2022/06/27 07:39:26;;;;;;;;;;;;;;;;;;5012246;28;19925;-80
2022/06/27 07:41:52;;;;;;;;;;;;;;;;;;5013208;28;19910;-80
2022/06/27 07:44:18;;;;;;;;;;;;;;;;;;5014709;28;19909;-80
2022/06/27 07:46:44;;;;;;;;;;;;;;;;;;5029520;28;20269;-80
2022/06/27 07:49:10;;;;;;;;;;;;;;;;;;5032600;28;20003;-83
2022/06/27 07:51:36;;;;;;;;;;;;;;;;;;5035577;28;20395;-81
2022/06/27 07:54:02;;;;;;;;;;;;;;;;;;5018870;28;19909;-78
2022/06/27 07:56:28;;;;;;;;;;;;;;;;;;5014843;28;19953;-80
2022/06/27 07:58:54;;;;;;;;;;;;;;;;;;5014280;28;20353;-81
2022/06/27 08:01:21;;;;;;;;;;;;;;;;;;5023810;28;19928;-79
2022/06/27 08:03:51;;;;;;;;;;;;;;;;;;5023363;28;19917;-81
2022/06/27 08:06:18;;;;;;;;;;;;;;;;;;5028166;28;19913;-80
2022/06/27 08:08:44;;;;;;;;;;;;;;;;;;5017205;28;19909;-80
2022/06/27 08:11:10;;;;;;;;;;;;;;;;;;5015437;28;20019;-82
2022/06/27 08:13:37;;;;;;;;;;;;;;;;;;5014422;28;20837;-80
2022/06/27 08:16:04;;;;;;;;;;;;;;;;;;5013121;28;20320;-80
2022/06/27 08:18:33;;;;;;;;;;;;;;;;;;5031312;28;19913;-81
2022/06/27 08:20:59;;;;;;;;;;;;;;;;;;5028456;28;19921;-79
2022/06/27 08:23:26;;;;;;;;;;;;;;;;;;5022853;28;19909;-81
2022/06/27 08:25:52;;;;;;;;;;;;;;;;;;5024672;28;19917;-80
2022/06/27 08:28:20;;;;;;;;;;;;;;;;;;5031764;28;20422;-80
2022/06/27 08:30:45;;;;;;;;;;;;;;;;;;5031078;28;20290;-81
2022/06/27 08:33:12;;;;;;;;;;;;;;;;;;5031658;28;19962;-80
2022/06/27 08:35:39;;;;;;;;;;;;;;;;;;5031024;28;19917;-80
2022/06/27 08:38:05;;;;;;;;;;;;;;;;;;5031841;28;20284;-80
2022/06/27 08:40:31;;;;;;;;;;;;;;;;;;5030554;28;19933;-80
2022/06/27 08:42:56;;;;;;;;;;;;;;;;;;5031667;28;19909;-80
2022/06/27 08:45:23;;;;;;;;;;;;;;;;;;5031276;28;19913;-80
2022/06/27 08:47:50;;;;;;;;;;;;;;;;;;5032598;28;19924;-79
2022/06/27 08:50:16;;;;;;;;;;;;;;;;;;5030554;28;20365;-79
2022/06/27 08:52:42;;;;;;;;;;;;;;;;;;5032460;28;19913;-80
2022/06/27 08:55:08;;;;;;;;;;;;;;;;;;5031014;28;19916;-79
2022/06/27 08:57:36;;;;;;;;;;;;;;;;;;5031447;28;19909;-79
2022/06/27 09:00:04;;;;;;;;;;;;;;;;;;5031170;28;19921;-82
2022/06/27 09:02:30;;;;;;;;;;;;;;;;;;5032272;28;19918;-82
2022/06/27 09:04:57;;;;;;;;;;;;;;;;;;5032395;28;19913;-82
2022/06/27 09:07:24;;;;;;;;;;;;;;;;;;5031309;28;19913;-80
2022/06/27 09:09:50;;;;;;;;;;;;;;;;;;5031415;28;19909;-81
2022/06/27 09:12:17;;;;;;;;;;;;;;;;;;5031893;28;19936;-82
2022/06/27 09:14:43;;;;;;;;;;;;;;;;;;5032248;28;19909;-80
2022/06/27 09:17:12;;;;;;;;;;;;;;;;;;5031387;28;19909;-80
2022/06/27 09:19:38;;;;;;;;;;;;;;;;;;5031628;28;19917;-81
2022/06/27 09:22:04;;;;;;;;;;;;;;;;;;5035651;28;19916;-81
2022/06/27 09:24:31;;;;;;;;;;;;;;;;;;5036987;28;20277;-81
2022/06/27 09:26:58;;;;;;;;;;;;;;;;;;5036536;28;19918;-81
2022/06/27 09:29:24;;;;;;;;;;;;;;;;;;5030943;28;19916;-81
2022/06/27 09:31:51;;;;;;;;;;;;;;;;;;5031620;28;19913;-81
2022/06/27 09:34:18;;;;;;;;;;;;;;;;;;5031516;28;19913;-81
2022/06/27 09:36:44;;;;;;;;;;;;;;;;;;5030440;28;20389;-81
2022/06/27 09:39:10;;;;;;;;;;;;;;;;;;5030120;28;19914;-80
2022/06/27 09:41:37;;;;;;;;;;;;;;;;;;5030457;28;19963;-79
2022/06/27 09:44:03;;;;;;;;;;;;;;;;;;5031442;28;19917;-79
2022/06/27 09:46:29;;;;;;;;;;;;;;;;;;5030240;28;20277;-80
2022/06/27 09:48:56;;;;;;;;;;;;;;;;;;5025477;28;20483;-81
2022/06/27 09:51:22;;;;;;;;;;;;;;;;;;5024182;28;19918;-80
2022/06/27 09:53:48;;;;;;;;;;;;;;;;;;5031782;28;19909;-80
2022/06/27 09:56:14;;;;;;;;;;;;;;;;;;5032651;28;19917;-81
2022/06/27 09:58:41;;;;;;;;;;;;;;;;;;5027450;28;20351;-81
2022/06/27 10:01:07;;;;;;;;;;;;;;;;;;5012795;28;19996;-81
2022/06/27 10:03:35;;;;;;;;;;;;;;;;;;5012098;28;19964;-82
2022/06/27 10:06:01;;;;;;;;;;;;;;;;;;5011117;28;20004;-83
2022/06/27 10:08:27;;;;;;;;;;;;;;;;;;5011255;28;19948;-82
2022/06/27 10:10:54;;;;;;;;;;;;;;;;;;5030833;28;20444;-79
2022/06/27 10:13:20;;;;;;;;;;;;;;;;;;5032071;28;20002;-82
2022/06/27 10:15:46;;;;;;;;;;;;;;;;;;5031057;28;20373;-82
2022/06/27 10:18:12;;;;;;;;;;;;;;;;;;5032195;28;19921;-80
2022/06/27 10:20:38;;;;;;;;;;;;;;;;;;5031922;28;20027;-82
2022/06/27 10:23:04;;;;;;;;;;;;;;;;;;5031758;28;19962;-79
2022/06/27 10:25:30;;;;;;;;;;;;;;;;;;5032253;28;20063;-80
2022/06/27 10:27:55;;;;;;;;;;;;;;;;;;5032989;28;19913;-80
2022/06/27 10:30:21;;;;;;;;;;;;;;;;;;5030926;28;19936;-79
2022/06/27 10:32:47;;;;;;;;;;;;;;;;;;5032654;28;19931;-80
2022/06/27 10:35:13;;;;;;;;;;;;;;;;;;5031649;28;20456;-80
2022/06/27 10:37:39;;;;;;;;;;;;;;;;;;5033835;28;19941;-80
2022/06/27 10:40:06;;;;;;;;;;;;;;;;;;5031416;28;19940;-82
2022/06/27 10:42:31;;;;;;;;;;;;;;;;;;5034733;28;20343;-80
2022/06/27 10:44:57;;;;;;;;;;;;;;;;;;5029709;28;19961;-79
2022/06/27 10:47:23;;;;;;;;;;;;;;;;;;5025707;28;19952;-79
2022/06/27 10:49:49;;;;;;;;;;;;;;;;;;5023905;28;19914;-81
2022/06/27 10:52:15;;;;;;;;;;;;;;;;;;5049293;28;19959;-80
2022/06/27 10:54:41;;;;;;;;;;;;;;;;;;5049889;28;19909;-80
2022/06/27 10:57:07;;;;;;;;;;;;;;;;;;5038006;28;20008;-80
2022/06/27 10:59:33;;;;;;;;;;;;;;;;;;5049383;28;19921;-79
2022/06/27 11:02:00;;;;;;;;;;;;;;;;;;5054424;28;19913;-78
2022/06/27 11:04:26;;;;;;;;;;;;;;;;;;5054786;28;19916;-79
2022/06/27 11:06:52;;;;;;;;;;;;;;;;;;5054894;28;19909;-78
2022/06/27 11:09:18;;;;;;;;;;;;;;;;;;5053121;28;19916;-78
2022/06/27 11:11:44;;;;;;;;;;;;;;;;;;5040684;28;19920;-79
2022/06/27 11:14:10;;;;;;;;;;;;;;;;;;5030001;28;19953;-79
2022/06/27 11:16:36;;;;;;;;;;;;;;;;;;5018827;28;19917;-79
2022/06/27 11:19:02;;;;;;;;;;;;;;;;;;5030640;28;19917;-78
2022/06/27 11:21:28;;;;;;;;;;;;;;;;;;5033037;28;19909;-78
2022/06/27 11:23:54;;;;;;;;;;;;;;;;;;5031283;28;19959;-78
2022/06/27 11:26:20;;;;;;;;;;;;;;;;;;5031922;28;19980;-80
2022/06/27 11:34:15;;;;;;;;;;;;;;;;;;5018571;28;19920;-78
2022/06/27 11:36:41;;;;;;;;;;;;;;;;;;5030605;28;19913;-80
2022/06/27 11:39:07;;;;;;;;;;;;;;;;;;5030321;28;19921;-80
2022/06/27 11:41:33;;;;;;;;;;;;;;;;;;5032357;28;19932;-79
2022/06/27 11:43:59;;;;;;;;;;;;;;;;;;5030913;28;20385;-81
2022/06/27 11:46:25;;;;;;;;;;;;;;;;;;5033751;28;20004;-78
2022/06/27 11:48:51;;;;;;;;;;;;;;;;;;5031664;28;19925;-80
2022/06/27 11:51:17;;;;;;;;;;;;;;;;;;5030808;28;19920;-78
2022/06/27 11:53:43;;;;;;;;;;;;;;;;;;5030402;28;19913;-80
2022/06/27 11:56:09;;;;;;;;;;;;;;;;;;5027425;28;19962;-79
2022/06/27 11:58:35;;;;;;;;;;;;;;;;;;5030584;28;20007;-79
2022/06/27 12:01:01;;;;;;;;;;;;;;;;;;5029372;28;19913;-79
2022/06/27 12:03:27;;;;;;;;;;;;;;;;;;5031370;28;20349;-81
2022/06/27 12:05:53;;;;;;;;;;;;;;;;;;5029921;28;19985;-80
2022/06/27 12:08:19;;;;;;;;;;;;;;;;;;5033268;28;19917;-80
2022/06/27 12:10:45;;;;;;;;;;;;;;;;;;5031846;28;19935;-80
2022/06/27 12:13:11;;;;;;;;;;;;;;;;;;5033609;28;19913;-80
2022/06/27 12:15:37;;;;;;;;;;;;;;;;;;5031413;28;20056;-80
2022/06/27 12:18:03;;;;;;;;;;;;;;;;;;5033299;28;19913;-81
2022/06/27 12:20:29;;;;;;;;;;;;;;;;;;5024949;28;19963;-82
2022/06/27 12:22:55;;;;;;;;;;;;;;;;;;5030169;28;19932;-80
2022/06/27 12:25:21;;;;;;;;;;;;;;;;;;5033287;28;19913;-80
2022/06/27 12:27:47;;;;;;;;;;;;;;;;;;5032333;28;20448;-79
2022/06/27 12:30:13;;;;;;;;;;;;;;;;;;5031568;28;19956;-81
2022/06/27 12:32:39;;;;;;;;;;;;;;;;;;5031630;28;19961;-81
2022/06/27 12:35:05;;;;;;;;;;;;;;;;;;5030860;28;19959;-80
2022/06/27 12:37:31;;;;;;;;;;;;;;;;;;5022034;28;19917;-82
2022/06/27 12:39:57;;;;;;;;;;;;;;;;;;5032515;28;20293;-82
2022/06/27 12:42:23;;;;;;;;;;;;;;;;;;5025069;28;20370;-83
2022/06/27 12:44:49;;;;;;;;;;;;;;;;;;5027436;28;19909;-80
2022/06/27 12:47:15;;;;;;;;;;;;;;;;;;5041082;28;19916;-79
2022/06/27 12:49:40;;;;;;;;;;;;;;;;;;5052474;28;20059;-79
2022/06/27 12:52:06;;;;;;;;;;;;;;;;;;5045680;28;19932;-79
2022/06/27 12:54:32;;;;;;;;;;;;;;;;;;5033594;28;19920;-79
2022/06/27 12:56:59;;;;;;;;;;;;;;;;;;5033057;28;19909;-80
2022/06/27 12:59:25;;;;;;;;;;;;;;;;;;5020853;28;20369;-79
2022/06/27 13:01:52;;;;;;;;;;;;;;;;;;5013141;28;19920;-80
2022/06/27 13:04:18;;;;;;;;;;;;;;;;;;5012530;28;19919;-79
2022/06/27 13:06:44;;;;;;;;;;;;;;;;;;5013377;28;19905;-81
2022/06/27 13:09:10;;;;;;;;;;;;;;;;;;5014050;28;19913;-81
2022/06/27 13:11:35;;;;;;;;;;;;;;;;;;5014438;28;19905;-81
2022/06/27 13:14:01;;;;;;;;;;;;;;;;;;5019253;28;19917;-80
2022/06/27 13:16:27;;;;;;;;;;;;;;;;;;5025170;28;20020;-81
2022/06/27 13:18:53;;;;;;;;;;;;;;;;;;5033987;28;20644;-79
2022/06/27 13:21:19;;;;;;;;;;;;;;;;;;5037403;28;19916;-81
2022/06/27 13:23:45;;;;;;;;;;;;;;;;;;5038642;28;19924;-81
2022/06/27 13:26:11;;;;;;;;;;;;;;;;;;5038470;28;19913;-81
2022/06/27 13:28:37;;;;;;;;;;;;;;;;;;5032931;28;19909;-81
2022/06/27 13:31:03;;;;;;;;;;;;;;;;;;5036245;28;19944;-82
2022/06/27 13:33:28;;;;;;;;;;;;;;;;;;5037174;28;20285;-82
2022/06/27 13:35:54;;;;;;;;;;;;;;;;;;5034614;28;19916;-81
2022/06/27 13:38:20;;;;;;;;;;;;;;;;;;5031767;28;20346;-82
2022/06/27 13:40:46;;;;;;;;;;;;;;;;;;5031358;28;20369;-80
2022/06/27 13:43:12;;;;;;;;;;;;;;;;;;5031636;28;19913;-80
2022/06/27 13:45:39;;;;;;;;;;;;;;;;;;5033806;28;20376;-81
2022/06/27 13:48:05;;;;;;;;;;;;;;;;;;5032672;28;19952;-80
2022/06/27 13:50:31;;;;;;;;;;;;;;;;;;5030365;28;19909;-79
2022/06/27 13:52:57;;;;;;;;;;;;;;;;;;5034724;28;20319;-81
2022/06/27 13:55:24;;;;;;;;;;;;;;;;;;5040207;28;20022;-81
2022/06/27 13:57:51;;;;;;;;;;;;;;;;;;5039519;28;19909;-79
2022/06/27 14:00:17;;;;;;;;;;;;;;;;;;5035015;28;19917;-80
2022/06/27 14:02:43;;;;;;;;;;;;;;;;;;5033897;28;19913;-80
2022/06/27 14:05:09;;;;;;;;;;;;;;;;;;5032863;28;19921;-79
2022/06/27 14:07:44;;;;;;;;;;;;;;;;;;5032496;28;20363;-79
2022/06/27 14:10:10;;;;;;;;;;;;;;;;;;5030899;28;20408;-80
2022/06/27 14:12:35;;;;;;;;;;;;;;;;;;5031749;28;19940;-80
2022/06/27 14:15:01;;;;;;;;;;;;;;;;;;5029654;28;19921;-80
2022/06/27 14:17:27;;;;;;;;;;;;;;;;;;5033120;28;19932;-80
2022/06/27 14:19:53;;;;;;;;;;;;;;;;;;5038456;28;20443;-80
2022/06/27 14:22:20;;;;;;;;;;;;;;;;;;5037650;28;20328;-80
2022/06/27 14:24:45;;;;;;;;;;;;;;;;;;5038235;28;19972;-78
2022/06/27 14:27:11;;;;;;;;;;;;;;;;;;5037432;28;19953;-79
2022/06/27 14:29:37;;;;;;;;;;;;;;;;;;5037503;28;19913;-80
2022/06/27 14:32:03;;;;;;;;;;;;;;;;;;5037326;28;19970;-81
2022/06/27 14:34:29;;;;;;;;;;;;;;;;;;5035171;28;19916;-79
2022/06/27 14:36:55;;;;;;;;;;;;;;;;;;5036350;28;19924;-80
2022/06/27 14:39:23;;;;;;;;;;;;;;;;;;5041652;28;19924;-80
2022/06/27 14:41:49;;;;;;;;;;;;;;;;;;5040858;28;19915;-79
2022/06/27 14:44:15;;;;;;;;;;;;;;;;;;5041701;28;19909;-79
2022/06/27 14:46:41;;;;;;;;;;;;;;;;;;5039386;28;20370;-79
2022/06/27 14:49:07;;;;;;;;;;;;;;;;;;5034385;28;20356;-79
2022/06/27 14:51:33;;;;;;;;;;;;;;;;;;5035163;28;19920;-79
2022/06/27 14:53:58;;;;;;;;;;;;;;;;;;5036813;28;19913;-79
2022/06/27 14:56:24;;;;;;;;;;;;;;;;;;5037954;28;19980;-79
2022/06/27 14:58:50;;;;;;;;;;;;;;;;;;5033532;28;19921;-78
2022/06/27 15:01:16;;;;;;;;;;;;;;;;;;5035179;28;19913;-80
2022/06/27 15:03:42;;;;;;;;;;;;;;;;;;5035989;28;20284;-79
2022/06/27 15:06:08;;;;;;;;;;;;;;;;;;5034179;28;20377;-79
2022/06/27 15:08:36;;;;;;;;;;;;;;;;;;5037545;28;20350;-79
2022/06/27 15:13:46;;;;;;;;;;;;;;;;;;5035839;28;19932;-79
2022/06/27 15:16:12;;;;;;;;;;;;;;;;;;5038330;28;19909;-80
2022/06/27 15:18:39;;;;;;;;;;;;;;;;;;5038639;28;20362;-79
2022/06/27 15:21:05;;;;;;;;;;;;;;;;;;5035607;28;19913;-79
2022/06/27 15:23:30;;;;;;;;;;;;;;;;;;5033332;28;19917;-80
2022/06/27 15:25:56;;;;;;;;;;;;;;;;;;5036295;28;19909;-81
2022/06/27 15:28:22;;;;;;;;;;;;;;;;;;5033943;28;19913;-79
2022/06/27 15:30:48;;;;;;;;;;;;;;;;;;5034659;28;19992;-78
2022/06/27 15:33:14;;;;;;;;;;;;;;;;;;5037813;28;19914;-79
2022/06/27 15:35:40;;;;;;;;;;;;;;;;;;5042987;28;19917;-79
2022/06/27 15:38:06;;;;;;;;;;;;;;;;;;5032688;28;20341;-78
2022/06/27 15:40:32;;;;;;;;;;;;;;;;;;5036455;28;19913;-80
2022/06/27 15:42:57;;;;;;;;;;;;;;;;;;5042354;28;20345;-79
2022/06/27 15:45:23;;;;;;;;;;;;;;;;;;5041917;28;19940;-79
2022/06/27 15:47:49;;;;;;;;;;;;;;;;;;5041224;28;19917;-79
2022/06/27 15:50:15;;;;;;;;;;;;;;;;;;5036268;28;19917;-80
2022/06/27 15:52:41;;;;;;;;;;;;;;;;;;5036150;28;20440;-80
2022/06/27 15:55:08;;;;;;;;;;;;;;;;;;5038243;28;19916;-80
2022/06/27 15:57:34;;;;;;;;;;;;;;;;;;5040236;28;19913;-79
2022/06/27 16:00:00;;;;;;;;;;;;;;;;;;5043280;28;19913;-80
2022/06/27 16:02:26;;;;;;;;;;;;;;;;;;5049189;28;19969;-80
2022/06/27 16:04:52;;;;;;;;;;;;;;;;;;5054812;28;19921;-79
2022/06/27 16:07:18;;;;;;;;;;;;;;;;;;5033787;28;19924;-79
2022/06/27 16:09:43;;;;;;;;;;;;;;;;;;5029794;28;19957;-79
2022/06/27 16:12:10;;;;;;;;;;;;;;;;;;5026791;28;19917;-79
2022/06/27 16:14:36;;;;;;;;;;;;;;;;;;5018412;28;19905;-80
2022/06/27 16:17:02;;;;;;;;;;;;;;;;;;5011163;28;20007;-80
2022/06/27 16:19:27;;;;;;;;;;;;;;;;;;5008561;28;20441;-80
2022/06/27 16:21:53;;;;;;;;;;;;;;;;;;5013377;28;19916;-79
2022/06/27 16:24:19;;;;;;;;;;;;;;;;;;5011792;28;19983;-79
2022/06/27 16:26:45;;;;;;;;;;;;;;;;;;5013790;28;19920;-78
2022/06/27 16:29:11;;;;;;;;;;;;;;;;;;5014018;28;20289;-78
2022/06/27 16:31:40;;;;;;;;;;;;;;;;;;5015955;28;19913;-79
2022/06/27 16:34:06;;;;;;;;;;;;;;;;;;5016122;28;20032;-79
2022/06/27 16:36:31;;;;;;;;;;;;;;;;;;5014083;28;20003;-79
2022/06/27 16:38:57;;;;;;;;;;;;;;;;;;5013840;28;20366;-79
2022/06/27 16:41:23;;;;;;;;;;;;;;;;;;5012881;28;19920;-78
2022/06/27 16:43:49;;;;;;;;;;;;;;;;;;5011921;28;19913;-79
2022/06/27 16:46:15;;;;;;;;;;;;;;;;;;5013173;28;20017;-80